Canal Fulton, Ohio
Current Conditions -  °F | °C
As of 6:51 AM on Thursday 23 Oct 2014 (Local Time) from KCAK Reporting Station
Haze Haze  
Wind Chill: 42°   Ceiling: 200
Heat Index: 46°   Visibility: 5mi
Dew Point: 43°   Wind: 8mph
Humidity: 89%   Direction: 320°NW
Pressure: 30.18"   Gusts: NA
Location:  40.89°N, 81.6°W
Report Text: KCAK 231051Z 32007KT 5SM BR BKN002 OVC017 08/06 A3018 RMK AO2 SLP224 T00780061 $
Loading
Personal Weather Stations






























Interactive Weather Map
Tropical Storm Tracking
New forecast layout! Learn more

10-Day Weather Forecast

Advertisements
Track Severe Weather on mobile